createdAt,value
2023-05-03T00:04:00.495Z,11.5
2023-05-03T00:09:52.932Z,11.1
2023-05-03T00:15:44.437Z,10.8
2023-05-03T00:21:36.450Z,10.8
2023-05-03T00:27:29.385Z,10.9
2023-05-03T00:33:21.086Z,10.9
2023-05-03T00:39:12.041Z,10.4
2023-05-03T00:45:03.125Z,10.5
2023-05-03T00:50:52.263Z,11
2023-05-03T00:56:57.835Z,10.4
2023-05-03T01:02:48.893Z,10.8
2023-05-03T01:08:40.999Z,11.2
2023-05-03T01:14:32.867Z,11
2023-05-03T01:20:24.372Z,11.1
2023-05-03T01:26:16.230Z,11.6
2023-05-03T01:32:08.066Z,11.1
2023-05-03T01:37:59.918Z,11.4
2023-05-03T01:43:51.622Z,10.4
2023-05-03T01:49:44.605Z,10.7
2023-05-03T01:55:36.431Z,11.2
2023-05-03T02:01:28.279Z,11.7
2023-05-03T02:07:20.774Z,11
2023-05-03T02:13:14.111Z,10.3
2023-05-03T02:19:05.950Z,10.6
2023-05-03T02:24:58.743Z,10.9
2023-05-03T02:30:51.089Z,11.2
2023-05-03T02:36:42.565Z,11.2
2023-05-03T02:42:34.330Z,11.4
2023-05-03T02:48:26.093Z,11.2
2023-05-03T02:54:17.904Z,11.8
2023-05-03T03:00:10.320Z,11.6
2023-05-03T03:06:04.105Z,12.4
2023-05-03T03:11:54.760Z,11.3
2023-05-03T03:17:46.177Z,13
2023-05-03T03:23:39.531Z,11.6
2023-05-03T03:29:31.788Z,11.4
2023-05-03T03:35:22.261Z,11.6
2023-05-03T03:41:13.886Z,11.1
2023-05-03T03:47:06.535Z,11.7
2023-05-03T03:52:57.896Z,12.2
2023-05-03T03:58:49.897Z,14.1
2023-05-03T04:04:42.371Z,15.2
2023-05-03T04:10:33.925Z,15.3
2023-05-03T04:16:26.045Z,12.1
2023-05-03T04:22:17.860Z,12.7
2023-05-03T04:28:10.057Z,12.4
2023-05-03T04:34:01.985Z,12.4
2023-05-03T04:39:53.680Z,13
2023-05-03T04:45:46.055Z,13.7
2023-05-03T04:51:37.874Z,14.1
2023-05-03T04:57:30.073Z,17.3
2023-05-03T05:03:22.604Z,15.6
2023-05-03T05:09:14.904Z,15.5
2023-05-03T05:15:07.764Z,17.6
2023-05-03T05:20:59.966Z,16.8
2023-05-03T05:26:52.407Z,16.9
2023-05-03T05:32:44.852Z,15.8
2023-05-03T05:38:37.390Z,16.2
2023-05-03T05:44:31.162Z,16.4
2023-05-03T05:50:28.963Z,15.9
2023-05-03T05:56:19.371Z,15.5
2023-05-03T06:02:51.373Z,15.4
2023-05-03T06:08:45.827Z,15.3
2023-05-03T06:22:08.019Z,13.2
2023-05-03T06:34:44.420Z,12.8
2023-05-03T07:15:06.836Z,13
2023-05-03T07:21:38.238Z,14
2023-05-03T07:27:29.564Z,14.2
2023-05-03T07:33:22.550Z,12.1
2023-05-03T07:39:17.505Z,11.8
2023-05-03T07:45:35.451Z,9.3
2023-05-03T07:51:40.589Z,9.3
2023-05-03T07:57:42.921Z,9.3
2023-05-03T08:03:45.362Z,7.8
2023-05-03T08:09:58.900Z,8.7
2023-05-03T08:16:11.240Z,8.4
2023-05-03T08:22:31.045Z,8.2
2023-05-03T08:28:49.117Z,8.4
2023-05-03T08:34:59.758Z,8.3
2023-05-03T08:40:50.485Z,8.4
2023-05-03T08:46:43.075Z,8.2
2023-05-03T08:52:37.859Z,7.8
2023-05-03T08:58:30.732Z,8.5
2023-05-03T09:04:27.118Z,8.2
2023-05-03T09:10:26.813Z,7.1
2023-05-03T10:10:29.324Z,7.4
2023-05-03T10:35:42.321Z,7.2
2023-05-03T10:41:54.398Z,7.3
2023-05-03T10:47:44.646Z,6.2
2023-05-03T10:53:51.254Z,6.8
2023-05-03T11:18:34.720Z,5.4
2023-05-03T11:43:00.448Z,4
2023-05-03T11:48:56.431Z,4.1
2023-05-03T11:54:48.061Z,4.2
2023-05-03T12:00:40.204Z,4.4
2023-05-03T12:06:40.900Z,4
2023-05-03T12:12:56.860Z,4
2023-05-03T12:18:52.158Z,3.8
2023-05-03T12:25:00.227Z,3.5
2023-05-03T12:30:59.505Z,3.6
2023-05-03T12:37:04.340Z,3.5
2023-05-03T12:43:12.227Z,3.8
2023-05-03T12:49:29.989Z,3.3
2023-05-03T12:55:44.533Z,2.7
2023-05-03T13:09:06.271Z,3.1
2023-05-03T13:15:06.830Z,3.1
2023-05-03T13:38:50.234Z,2.9
2023-05-03T13:44:43.658Z,2.5
2023-05-03T13:50:44.864Z,2.8
2023-05-03T13:56:40.698Z,2.4
2023-05-03T14:20:21.182Z,2.5
2023-05-03T14:44:25.808Z,2.1
2023-05-03T14:50:18.046Z,1.9
2023-05-03T14:56:11.886Z,2.1
2023-05-03T15:02:05.282Z,2.1
2023-05-03T15:08:10.210Z,2.2
2023-05-03T15:14:02.846Z,2.1
2023-05-03T15:20:13.128Z,1.8
2023-05-03T15:32:06.149Z,1.8
2023-05-03T15:44:23.920Z,1.9
2023-05-03T15:50:18.605Z,1.7
2023-05-03T15:56:13.833Z,1.9
2023-05-03T16:02:06.268Z,1.9
2023-05-03T16:08:02.710Z,1.8
2023-05-03T16:13:58.493Z,1.9
2023-05-03T16:20:08.790Z,1.6
2023-05-03T16:32:23.035Z,1.7
2023-05-03T16:38:14.405Z,1.7
2023-05-03T16:44:19.407Z,1.6
2023-05-03T16:50:24.029Z,1.7
2023-05-03T17:02:07.959Z,1.6
2023-05-03T17:08:06.951Z,1.8
2023-05-03T17:14:20.499Z,1.6
2023-05-03T17:20:11.598Z,1.9
2023-05-03T17:26:03.336Z,1.8
2023-05-03T17:32:03.604Z,1.9
2023-05-03T17:44:30.130Z,1.7
2023-05-03T17:50:27.094Z,2
2023-05-03T17:56:21.718Z,2.3
2023-05-03T18:02:15.667Z,2.7
2023-05-03T18:08:11.054Z,1.9
2023-05-03T18:14:05.436Z,2
2023-05-03T18:20:01.013Z,2
2023-05-03T18:25:53.915Z,1.9
2023-05-03T18:31:45.887Z,1.8
2023-05-03T18:37:37.136Z,1.8
2023-05-03T18:43:28.201Z,1.8
2023-05-03T18:49:19.180Z,1.9
2023-05-03T18:55:10.787Z,2.3
2023-05-03T19:01:04.952Z,2.4
2023-05-03T19:06:56.862Z,2.1
2023-05-03T19:12:49.732Z,2.3
2023-05-03T19:18:41.224Z,1.9
2023-05-03T19:24:33.407Z,1.9
2023-05-03T19:30:24.609Z,2.1
2023-05-03T19:36:16.758Z,2.2
2023-05-03T19:42:08.388Z,2
2023-05-03T19:48:01.078Z,2.1
2023-05-03T19:53:57.813Z,2.4
2023-05-03T19:59:49.462Z,2.4
2023-05-03T20:05:41.821Z,2.3
2023-05-03T20:11:39.443Z,2.6
2023-05-03T20:17:34.053Z,2.5
2023-05-03T20:23:26.753Z,2.8
2023-05-03T20:29:19.317Z,2.6
2023-05-03T20:35:16.613Z,3.3
2023-05-03T20:41:08.479Z,3.3
2023-05-03T20:47:10.572Z,3.3
2023-05-03T20:53:02.245Z,3.5
2023-05-03T20:58:54.770Z,3.5
2023-05-03T21:04:48.031Z,3.4
2023-05-03T21:10:44.006Z,3.5
2023-05-03T21:16:34.137Z,4.2
2023-05-03T21:41:58.214Z,3.1
2023-05-03T22:25:01.227Z,4.1
2023-05-03T22:30:52.954Z,3.8
2023-05-03T22:36:45.462Z,3.7
2023-05-03T23:02:35.806Z,4
2023-05-03T23:40:10.561Z,3.9
2023-05-03T23:59:06.048Z,3.9
